INFORMAÇÕES DO AERODROMO
Icao Aerodromo VDPP Nome do Aerodromo Phnom Penh International Airport Cidade Phnom Penh
Código GPS VDPP Elevação Média 40 ft Tipo de Aerodromo Aeroporto Grande Porte

INFORMAÇÃO DE PISTA
Pista 05 Comprimento da Pista 9843 ft Largura da Pista 144 ft
Elevação da Pista 40 ft Distância de Area de Escape da Pista 0 ft Orientação da Pista 46
Pista 23 Comprimento da Pista 9843 ft Largura da Pista 144 ft
Elevação da Pista 37 ft Distância de Area de Escape da Pista 492 ft Orientação da Pista 226

FREQUÊNCIAS DO AERODROMO
Tipo ACC Nome ACC Frequência 127.5 MHZ
Tipo APP Nome APP Frequência 123.8 MHZ
Tipo ATIS Nome ATIS Frequência 127.25 MHZ
Tipo TWR Nome TWR Frequência 118 MHZ

INFORMAÇÕES DE NAVEGAÇÃO PRÓXIMO AO AERODROMO
Tipo VOR-DME Nome Phnom Penh Frequência 114300 KHZ
Tipo NDB Nome Phnom Penh Frequência 376 KHZ

Informações de Meteorologia(METAR atual)
METAR DE VDPP
ADDS - METARS form results

(2126 UTC 06 July 2020)
Data provider http://aviationweather.gov/metar/data/
 
METAR text: VDPP 062100Z 16005KT 9000 FEW015 27/26 Q1007
Conditions at: VDPP (PHNOM-PENH/POCHE, KH) observed 2100 UTC 06 July 2020
Temperature: 27.0°C (81°F)
Dewpoint: 26.0°C (79°F) [RH = 94%]
Pressure (altimeter): 29.73 inches Hg (1007.0 mb)
Winds: from the SSE (160 degrees) at 6 MPH (5 knots; 2.6 m/s)
Visibility: 6 miles ( 9 km)
Ceiling: at least 12,000 feet AGL
Clouds: few clouds at 1500 feet AGL
Weather: no significant weather observed at this time

METAR text: VDPP 062030Z 18005KT 9000 FEW015 27/26 Q1007
Conditions at: VDPP (PHNOM-PENH/POCHE, KH) observed 2030 UTC 06 July 2020
Temperature: 27.0°C (81°F)
Dewpoint: 26.0°C (79°F) [RH = 94%]
Pressure (altimeter): 29.73 inches Hg (1007.0 mb)
Winds: from the S (180 degrees) at 6 MPH (5 knots; 2.6 m/s)
Visibility: 6 miles ( 9 km)
Ceiling: at least 12,000 feet AGL
Clouds: few clouds at 1500 feet AGL
Weather: no significant weather observed at this time

Forecast for: VDPP (PHNOM-PENH/POCHE, KH)
Text: TAF VDPP 061700Z 0618/0712 19008KT 9999 SCT017
Forecast period: 1800 UTC 06 July 2020 to 1200 UTC 07 July 2020
Forecast type: FROM: standard forecast or significant change
Winds: from the S (190 degrees) at 9 MPH (8 knots; 4.1 m/s)
Visibility: 6 or more miles 10+ km)
Ceiling: at least 12,000 feet AGL
Clouds: scattered clouds at 1700 feet AGL
Weather: no significant weather forecast for this period
Text: TEMPO 0706/0711 SCT015 FEW017CB SCT040
Forecast period: 0600 to 1100 UTC 07 July 2020
Forecast type: TEMPORARY: The following changes expected for less than half the time period
Visibility: missing
Ceiling: at least 12,000 feet AGL
Clouds: scattered clouds at 1500 feet AGL
few clouds at 1700 feet AGL
scattered clouds at 4000 feet AGL
Weather: no significant weather forecast for this period

MAPA DO AERODROMO


Desenvolvido por Virtual Airlines Manager




Modificado por Servidor Brasil Amigos